Астана

Карта отелей и гостиниц, располагающихся рядом с аэропортом Астана :

Астана Акмолинская область 51° 1' 21.36" N, 71° 27' 58.32" E
Код аэродрома ИКАО
UACC
Код аэродрома RU
УАЦЦ
Координаты
N51.02260° E071.46620°
Превышение над уровнем моря
335
Основная полоса
04/22
Курс магнитный
035/215
Длина основной ВПП
3500
Ширина основной ВПП
45
Покрытие основной ВПП
Твёрдое (железобетон)
Освещение ВПП
Постоянное
Тип: 
Аэродром
Класс аэродрома: 
Международный
Принадлежность: 
ГА
Статус: 
Действующий
Сайт: 
http://astanaairport.kz/
Страна: 
Казахстан
Регион: 
Акмолинская область
Дополнительная информация: 
Эксплуатант: АО «Международный аэропорт Астана». Совместного базирования. Внеклассный, пригоден для эксплуатации почти всех типов ВС (исключения - широкофюзеляжные авиалайнеры типа Airbus A380). Является одним из современнейших аэропортов на Евразийском континенте. Допущен к использованию по категорированному минимуму IIIA ICAO.
Погода: 

Авиационная погода в Астане

Регион: 
Погода METAR: 
UACC 222100Z 07004MPS 3800 BR NSC M24/M27 Q1026 NOSIG RMK QFE738/0984
Время наблюдения
2022-01-22T21:00:00Z
Температура C
-24.0
Точка росы
-27.0
Направление ветра
70
Скорость ветра (узлы)
8
Метео видимость
2.36
Облачность
CLR
Нижняя граница облачности (футы)
Явления погоды
BR
Условия полета
IFR
Аэропорт подробнее: 
CLR — нет облаков ниже 3000 м
BR – дымка (видимость от 1 до 9 км);

Найти трансфер

С помощью этой формы Вы можете найти трансфер из аэропорта Астана в город, аэропорт или вокзал:

Погода в аэропортах:

Авиационная погода в Белгороде

Регион: 
Погода METAR: 
UUOB 222100Z 16002MPS 8000 -SHSN BKN008CB M04/M06 Q1013 R29/890338 NOSIG
Время наблюдения
2022-01-22T21:00:00Z
Температура C
-4.0
Точка росы
-6.0
Направление ветра
160
Скорость ветра (узлы)
4
Метео видимость
4.97
Облачность
BKN
Нижняя граница облачности (футы)
800
Явления погоды
-SHSN
Условия полета
IFR
Аэропорт подробнее: 
BKN – значительная (рассеянная, разорванная) облачность;
-SHSN - слабый ливневой снег;

Авиационная погода в Якутске

Регион: 
Погода METAR: 
UEEE 222100Z 03001MPS 5000 -SN NSC M30/M33 Q1025 R23L/490145 NOSIG RMK QFE760
Время наблюдения
2022-01-22T21:00:00Z
Температура C
-30.0
Точка росы
-33.0
Направление ветра
30
Скорость ветра (узлы)
2
Метео видимость
3.11
Облачность
CLR
Нижняя граница облачности (футы)
Явления погоды
-SN
Условия полета
MVFR
Аэропорт подробнее: 
CLR — нет облаков ниже 3000 м
-SN – слабый снег;

Авиационная погода в аэропорту Имени Алексея Леонова

Регион: 
Погода METAR: 
UNEE 222100Z 00000MPS 3000 0450NE R23/1200D FZFG FU OVC001 M23/M25 Q1031 R23/920340 NOSIG RMK QBB040 QFE750
Время наблюдения
2022-01-22T21:00:00Z
Температура C
-23.0
Точка росы
-25.0
Направление ветра
0
Скорость ветра (узлы)
0
Метео видимость
1.86
Облачность
OVC
Нижняя граница облачности (футы)
100
Явления погоды
FZFG FU
Условия полета
LIFR
Аэропорт подробнее: 
OVC – сплошная облачность;
FZFG - переохлаждённый туман; FU – дым (видимость менее 10 км);

Авиационная погода в Стамбуле

Регион: 
Погода METAR: 
LTFM 222050Z 36014KT 320V030 0800 R35R/1000N R17L/1200N R34L/1400N R36/1400N TSSN SCT015CB BKN025 M01/M02 Q1016 RESHGS BECMG 6000 NSW RMK RWY17L 33015KT RWY34L 34010KT 290V010 RWY16R 35013KT RWY36 01013KT RWY18 36014KT
Время наблюдения
2022-01-22T20:50:00Z
Температура C
-1.0
Точка росы
-2.0
Направление ветра
360
Скорость ветра (узлы)
14
Метео видимость
0.5
Облачность
SCT
BKN
Нижняя граница облачности (футы)
1500
2500
Явления погоды
TSSN
Условия полета
LIFR
SCT – разбросанная отдельная облачность; BKN – значительная (рассеянная, разорванная) облачность;
TSSN - гроза со снегом; SS - песчаная буря (видимость менее 10 км);